createdAt,value
2023-05-01T00:01:56.506Z,8.79
2023-05-01T00:04:27.095Z,8.78
2023-05-01T00:06:55.086Z,8.79
2023-05-01T00:09:32.757Z,8.68
2023-05-01T00:12:06.555Z,8.52
2023-05-01T00:14:38.425Z,8.44
2023-05-01T00:17:10.924Z,8.42
2023-05-01T00:19:37.721Z,8.33
2023-05-01T00:22:04.496Z,8.30
2023-05-01T00:24:31.233Z,8.13
2023-05-01T00:26:57.981Z,7.90
2023-05-01T00:29:25.171Z,7.76
2023-05-01T00:31:51.874Z,7.58
2023-05-01T00:34:19.553Z,7.38
2023-05-01T00:36:48.035Z,7.27
2023-05-01T00:39:16.639Z,7.22
2023-05-01T00:41:43.323Z,7.04
2023-05-01T00:44:10.978Z,6.93
2023-05-01T00:46:38.496Z,7.00
2023-05-01T00:49:10.545Z,6.82
2023-05-01T00:51:49.371Z,6.79
2023-05-01T00:54:18.183Z,6.75
2023-05-01T00:56:47.699Z,6.62
2023-05-01T00:59:18.148Z,6.42
2023-05-01T01:01:45.179Z,6.28
2023-05-01T01:04:12.064Z,6.26
2023-05-01T01:06:45.060Z,6.26
2023-05-01T01:09:33.463Z,6.21
2023-05-01T01:12:32.405Z,6.13
2023-05-01T01:15:20.753Z,6.06
2023-05-01T01:18:07.181Z,5.92
2023-05-01T01:20:49.243Z,5.84
2023-05-01T01:23:36.184Z,5.56
2023-05-01T01:26:41.940Z,5.56
2023-05-01T01:29:27.561Z,5.59
2023-05-01T01:32:11.175Z,5.59
2023-05-01T01:34:51.407Z,5.55
2023-05-01T01:37:24.235Z,5.50
2023-05-01T01:40:11.699Z,5.51
2023-05-01T01:43:02.050Z,5.51
2023-05-01T01:45:40.235Z,5.48
2023-05-01T01:48:11.797Z,5.28
2023-05-01T01:50:40.438Z,5.36
2023-05-01T01:53:11.796Z,5.46
2023-05-01T01:55:41.421Z,5.46
2023-05-01T01:58:10.618Z,5.51
2023-05-01T02:00:51.919Z,5.38
2023-05-01T02:03:26.442Z,5.33
2023-05-01T02:06:00.883Z,5.19
2023-05-01T02:08:36.350Z,5.11
2023-05-01T02:11:05.151Z,4.82
2023-05-01T02:13:34.021Z,4.81
2023-05-01T02:16:09.698Z,4.89
2023-05-01T02:18:41.804Z,4.80
2023-05-01T02:21:21.886Z,4.78
2023-05-01T02:24:04.092Z,4.80
2023-05-01T02:26:36.414Z,4.83
2023-05-01T02:29:04.265Z,4.79
2023-05-01T02:31:30.944Z,4.73
2023-05-01T02:33:58.181Z,4.68
2023-05-01T02:36:24.934Z,4.66
2023-05-01T02:38:51.902Z,4.47
2023-05-01T02:41:22.597Z,4.44
2023-05-01T02:43:55.594Z,4.45
2023-05-01T02:46:24.666Z,4.53
2023-05-01T02:48:52.997Z,4.55
2023-05-01T02:51:21.296Z,4.37
2023-05-01T02:53:48.506Z,4.35
2023-05-01T02:56:20.337Z,4.36
2023-05-01T02:58:50.511Z,4.36
2023-05-01T03:01:17.415Z,4.37
2023-05-01T03:03:44.519Z,4.39
2023-05-01T03:06:11.330Z,4.34
2023-05-01T03:08:38.060Z,4.24
2023-05-01T03:11:08.474Z,4.25
2023-05-01T03:13:35.734Z,4.21
2023-05-01T03:16:11.514Z,4.35
2023-05-01T03:18:38.916Z,4.35
2023-05-01T03:21:06.414Z,4.28
2023-05-01T03:23:42.761Z,4.26
2023-05-01T03:26:12.324Z,4.24
2023-05-01T03:28:39.266Z,4.15
2023-05-01T03:31:06.718Z,4.16
2023-05-01T03:33:33.924Z,4.12
2023-05-01T03:36:05.770Z,4.14
2023-05-01T03:38:34.124Z,4.20
2023-05-01T03:41:10.110Z,4.20
2023-05-01T03:43:57.251Z,4.31
2023-05-01T03:46:44.593Z,4.50
2023-05-01T03:49:17.943Z,4.37
2023-05-01T03:51:47.542Z,4.34
2023-05-01T03:54:14.538Z,4.35
2023-05-01T03:56:54.448Z,4.32
2023-05-01T03:59:21.550Z,4.30
2023-05-01T04:01:59.191Z,4.09
2023-05-01T04:04:30.185Z,4.18
2023-05-01T04:07:06.275Z,4.16
2023-05-01T04:09:34.303Z,4.18
2023-05-01T04:12:05.296Z,4.24
2023-05-01T04:14:36.169Z,4.27
2023-05-01T04:17:03.849Z,4.23
2023-05-01T04:19:35.443Z,4.24
2023-05-01T04:22:02.482Z,4.25
2023-05-01T04:24:31.453Z,4.20
2023-05-01T04:26:58.740Z,4.26
2023-05-01T04:29:25.464Z,4.34
2023-05-01T04:31:59.040Z,4.41
2023-05-01T04:37:41.557Z,4.61
2023-05-01T04:40:11.549Z,4.65
2023-05-01T04:42:40.042Z,4.67
2023-05-01T04:45:10.362Z,4.74
2023-05-01T04:47:37.331Z,4.57
2023-05-01T04:50:05.546Z,4.67
2023-05-01T04:52:32.254Z,4.82
2023-05-01T04:55:01.602Z,5.03
2023-05-01T04:57:30.633Z,5.36
2023-05-01T04:59:57.892Z,5.65
2023-05-01T05:02:25.059Z,5.88
2023-05-01T05:04:53.996Z,6.15
2023-05-01T05:07:21.848Z,6.30
2023-05-01T05:10:15.216Z,6.46
2023-05-01T05:12:48.245Z,6.61
2023-05-01T05:15:17.655Z,6.81
2023-05-01T05:17:50.144Z,7.20
2023-05-01T05:20:21.082Z,7.49
2023-05-01T05:22:55.223Z,7.43
2023-05-01T05:25:27.963Z,7.52
2023-05-01T05:27:54.848Z,7.61
2023-05-01T05:30:22.185Z,7.63
2023-05-01T05:32:51.764Z,7.70
2023-05-01T05:35:25.875Z,7.86
2023-05-01T05:37:53.268Z,7.91
2023-05-01T05:40:20.033Z,8.05
2023-05-01T05:42:53.948Z,8.07
2023-05-01T05:45:21.002Z,8.27
2023-05-01T05:47:47.831Z,8.26
2023-05-01T05:50:14.808Z,8.33
2023-05-01T05:52:44.017Z,8.42
2023-05-01T05:55:10.954Z,8.38
2023-05-01T05:57:38.038Z,8.41
2023-05-01T06:00:09.445Z,8.32
2023-05-01T06:02:39.678Z,8.53
2023-05-01T06:05:07.997Z,8.76
2023-05-01T06:07:35.524Z,8.78
2023-05-01T06:10:05.878Z,8.91
2023-05-01T06:12:34.135Z,8.90
2023-05-01T06:15:03.417Z,9.13
2023-05-01T06:17:31.312Z,9.40
2023-05-01T06:19:58.727Z,9.40
2023-05-01T06:22:25.814Z,9.54
2023-05-01T06:25:01.776Z,9.67
2023-05-01T06:27:30.527Z,9.57
2023-05-01T06:29:57.674Z,9.81
2023-05-01T06:32:24.624Z,10.05
2023-05-01T06:34:53.080Z,10.21
2023-05-01T06:37:19.844Z,10.49
2023-05-01T06:39:47.908Z,10.73
2023-05-01T06:42:16.217Z,10.95
2023-05-01T06:44:43.483Z,11.32
2023-05-01T06:47:10.534Z,11.21
2023-05-01T06:49:37.682Z,11.09
2023-05-01T06:52:04.631Z,10.98
2023-05-01T06:54:31.509Z,10.60
2023-05-01T06:56:58.192Z,10.76
2023-05-01T06:59:25.529Z,10.87
2023-05-01T07:01:53.151Z,11.06
2023-05-01T07:04:19.826Z,11.06
2023-05-01T07:06:46.681Z,11.15
2023-05-01T07:09:13.980Z,11.17
2023-05-01T07:11:42.330Z,11.04
2023-05-01T07:14:09.149Z,11.02
2023-05-01T07:16:36.037Z,11.08
2023-05-01T07:19:02.947Z,11.07
2023-05-01T07:21:30.515Z,11.22
2023-05-01T07:23:57.437Z,11.23
2023-05-01T07:26:27.223Z,10.64
2023-05-01T07:28:54.571Z,11.02
2023-05-01T07:31:23.123Z,10.70
2023-05-01T07:33:51.032Z,10.60
2023-05-01T07:36:20.831Z,10.87
2023-05-01T07:38:49.525Z,11.17
2023-05-01T07:41:17.357Z,11.17
2023-05-01T07:43:44.628Z,10.94
2023-05-01T07:46:11.908Z,10.99
2023-05-01T07:48:39.120Z,11.06
2023-05-01T07:51:06.385Z,11.22
2023-05-01T07:53:34.320Z,10.90
2023-05-01T07:56:07.383Z,11.25
2023-05-01T07:58:36.364Z,10.87
2023-05-01T08:01:03.952Z,11.03
2023-05-01T08:03:31.237Z,11.02
2023-05-01T08:05:58.743Z,11.38
2023-05-01T08:08:25.540Z,11.35
2023-05-01T08:10:52.466Z,11.24
2023-05-01T08:13:19.675Z,11.27
2023-05-01T08:15:48.233Z,11.48
2023-05-01T08:18:20.944Z,11.71
2023-05-01T08:20:48.881Z,11.75
2023-05-01T08:23:19.351Z,11.79
2023-05-01T08:25:52.334Z,11.87
2023-05-01T08:28:23.243Z,12.05
2023-05-01T08:30:50.413Z,12.17
2023-05-01T08:33:17.700Z,12.37
2023-05-01T08:35:44.439Z,12.07
2023-05-01T08:38:12.082Z,12.41
2023-05-01T08:40:41.175Z,12.61
2023-05-01T08:43:08.763Z,12.76
2023-05-01T08:45:38.040Z,12.52
2023-05-01T08:48:10.609Z,12.92
2023-05-01T08:50:40.517Z,13.16
2023-05-01T08:53:12.525Z,13.11
2023-05-01T08:55:43.862Z,13.31
2023-05-01T08:58:14.235Z,13.60
2023-05-01T09:00:42.516Z,13.75
2023-05-01T09:03:11.926Z,13.71
2023-05-01T09:05:39.139Z,13.96
2023-05-01T09:08:06.052Z,13.75
2023-05-01T09:10:34.187Z,14.09
2023-05-01T09:13:02.487Z,14.00
2023-05-01T09:15:30.217Z,13.89
2023-05-01T09:18:03.219Z,13.95
2023-05-01T09:20:31.924Z,14.07
2023-05-01T09:22:59.094Z,14.28
2023-05-01T09:25:25.898Z,14.07
2023-05-01T09:27:53.088Z,14.17
2023-05-01T09:30:34.337Z,14.39
2023-05-01T09:33:06.198Z,14.33
2023-05-01T09:35:34.158Z,14.53
2023-05-01T09:38:01.489Z,14.77
2023-05-01T09:40:28.421Z,14.80
2023-05-01T09:42:56.288Z,14.80
2023-05-01T09:45:23.715Z,14.92
2023-05-01T09:47:50.614Z,15.14
2023-05-01T09:50:34.896Z,15.23
2023-05-01T09:53:06.465Z,15.35
2023-05-01T09:55:34.452Z,15.50
2023-05-01T09:58:01.219Z,15.56
2023-05-01T10:00:27.962Z,15.74
2023-05-01T10:02:54.903Z,15.80
2023-05-01T10:05:22.977Z,16.00
2023-05-01T10:07:58.538Z,15.94
2023-05-01T10:10:26.204Z,16.08
2023-05-01T10:12:53.120Z,16.34
2023-05-01T10:15:26.196Z,16.53
2023-05-01T10:17:54.702Z,16.20
2023-05-01T10:20:21.834Z,16.56
2023-05-01T10:22:49.343Z,15.74
2023-05-01T10:25:18.248Z,15.81
2023-05-01T10:27:45.500Z,15.77
2023-05-01T10:30:12.925Z,15.99
2023-05-01T10:32:42.059Z,16.41
2023-05-01T10:35:13.815Z,16.26
2023-05-01T10:38:03.723Z,15.97
2023-05-01T10:40:39.910Z,16.08
2023-05-01T10:43:19.694Z,16.48
2023-05-01T10:45:48.044Z,16.54
2023-05-01T10:48:42.647Z,17.04
2023-05-01T10:51:28.122Z,17.21
2023-05-01T10:54:13.958Z,17.30
2023-05-01T10:56:43.312Z,17.13
2023-05-01T10:59:10.719Z,17.63
2023-05-01T11:01:42.233Z,17.68
2023-05-01T11:04:27.435Z,17.62
2023-05-01T11:07:07.922Z,17.85
2023-05-01T11:09:43.995Z,17.70
2023-05-01T11:12:12.795Z,18.07
2023-05-01T11:14:56.760Z,18.02
2023-05-01T11:17:42.310Z,18.25
2023-05-01T11:20:11.690Z,17.94
2023-05-01T11:22:40.770Z,18.33
2023-05-01T11:25:34.046Z,18.56
2023-05-01T11:28:03.178Z,18.17
2023-05-01T11:30:42.384Z,18.41
2023-05-01T11:33:10.991Z,18.53
2023-05-01T11:35:39.856Z,18.68
2023-05-01T11:38:06.699Z,18.65
2023-05-01T11:40:35.024Z,17.54
2023-05-01T11:43:02.270Z,17.62
2023-05-01T11:45:29.869Z,17.53
2023-05-01T11:47:57.108Z,17.66
2023-05-01T11:50:39.158Z,17.69
2023-05-01T11:53:19.039Z,17.92
2023-05-01T11:55:53.670Z,17.93
2023-05-01T11:58:32.860Z,17.99
2023-05-01T12:01:07.755Z,18.08
2023-05-01T12:03:42.928Z,17.41
2023-05-01T12:06:16.446Z,17.49
2023-05-01T12:08:51.941Z,17.80
2023-05-01T12:11:21.531Z,18.07
2023-05-01T12:13:50.379Z,18.33
2023-05-01T12:16:25.294Z,18.62
2023-05-01T12:18:55.763Z,18.77
2023-05-01T12:21:23.593Z,17.95
2023-05-01T12:23:58.554Z,17.83
2023-05-01T12:26:29.527Z,18.28
2023-05-01T12:29:04.405Z,18.29
2023-05-01T12:31:47.138Z,18.50
2023-05-01T12:34:14.377Z,18.47
2023-05-01T12:36:41.307Z,18.71
2023-05-01T12:39:12.330Z,18.98
2023-05-01T12:41:45.482Z,19.01
2023-05-01T12:44:25.279Z,19.16
2023-05-01T12:46:56.172Z,18.67
2023-05-01T12:49:24.858Z,18.62
2023-05-01T12:51:54.059Z,18.57
2023-05-01T12:54:29.180Z,18.08
2023-05-01T12:57:18.432Z,17.87
2023-05-01T12:59:47.368Z,17.94
2023-05-01T13:02:17.616Z,18.10
2023-05-01T13:04:47.391Z,18.33
2023-05-01T13:07:16.549Z,18.57
2023-05-01T13:10:00.902Z,18.89
2023-05-01T13:12:28.896Z,18.92
2023-05-01T13:14:57.283Z,18.87
2023-05-01T13:17:30.436Z,19.10
2023-05-01T13:20:05.075Z,18.48
2023-05-01T13:22:37.617Z,18.71
2023-05-01T13:25:23.803Z,18.59
2023-05-01T13:27:53.078Z,18.90
2023-05-01T13:30:30.910Z,18.34
2023-05-01T13:32:58.308Z,18.73
2023-05-01T13:35:27.033Z,18.72
2023-05-01T13:37:55.553Z,18.59
2023-05-01T13:40:26.543Z,18.96
2023-05-01T13:42:54.582Z,18.97
2023-05-01T13:45:21.669Z,19.13
2023-05-01T13:47:51.214Z,19.04
2023-05-01T13:50:18.864Z,19.28
2023-05-01T13:52:46.317Z,19.33
2023-05-01T13:55:15.751Z,18.80
2023-05-01T13:57:49.726Z,19.03
2023-05-01T14:00:20.236Z,19.26
2023-05-01T14:02:49.821Z,19.39
2023-05-01T14:05:19.659Z,19.58
2023-05-01T14:08:06.887Z,19.74
2023-05-01T14:10:33.930Z,19.68
2023-05-01T14:13:02.863Z,19.35
2023-05-01T14:15:30.610Z,19.08
2023-05-01T14:18:01.495Z,19.09
2023-05-01T14:20:28.863Z,18.74
2023-05-01T14:22:55.851Z,19.18
2023-05-01T14:25:28.730Z,19.40
2023-05-01T14:27:57.238Z,19.54
2023-05-01T14:30:29.168Z,19.53
2023-05-01T14:32:57.322Z,19.43
2023-05-01T14:35:25.387Z,19.22
2023-05-01T14:37:52.680Z,19.14
2023-05-01T14:40:27.805Z,19.01
2023-05-01T14:42:58.510Z,18.55
2023-05-01T14:45:28.992Z,18.82
2023-05-01T14:47:56.248Z,18.93
2023-05-01T14:50:25.271Z,18.89
2023-05-01T14:52:59.977Z,18.72
2023-05-01T14:55:34.910Z,18.34
2023-05-01T14:58:02.237Z,18.18
2023-05-01T15:00:32.730Z,18.20
2023-05-01T15:03:02.347Z,18.35
2023-05-01T15:05:30.174Z,18.42
2023-05-01T15:07:57.237Z,18.38
2023-05-01T15:10:24.325Z,18.58
2023-05-01T15:12:52.481Z,18.86
2023-05-01T15:15:19.454Z,18.98
2023-05-01T15:17:47.265Z,18.47
2023-05-01T15:20:14.255Z,18.77
2023-05-01T15:22:41.287Z,18.54
2023-05-01T15:25:11.116Z,18.80
2023-05-01T15:27:39.340Z,18.47
2023-05-01T15:30:06.901Z,18.11
2023-05-01T15:32:34.212Z,18.00
2023-05-01T15:35:01.893Z,18.06
2023-05-01T15:37:31.958Z,18.30
2023-05-01T15:39:59.665Z,18.34
2023-05-01T15:42:26.475Z,18.19
2023-05-01T15:44:53.254Z,18.28
2023-05-01T15:47:19.956Z,18.26
2023-05-01T15:49:46.649Z,18.19
2023-05-01T15:52:13.560Z,18.32
2023-05-01T15:54:40.366Z,18.29
2023-05-01T15:57:08.695Z,18.04
2023-05-01T15:59:35.700Z,18.02
2023-05-01T16:02:02.775Z,18.15
2023-05-01T16:04:29.497Z,18.27
2023-05-01T16:06:56.192Z,18.01
2023-05-01T16:09:30.902Z,17.88
2023-05-01T16:11:59.558Z,17.91
2023-05-01T16:14:26.657Z,17.92
2023-05-01T16:16:53.495Z,17.77
2023-05-01T16:19:20.420Z,17.78
2023-05-01T16:21:47.202Z,17.63
2023-05-01T16:24:14.348Z,17.58
2023-05-01T16:26:41.641Z,17.62
2023-05-01T16:29:08.692Z,17.76
2023-05-01T16:31:40.759Z,17.79
2023-05-01T16:34:11.144Z,17.81
2023-05-01T16:36:42.539Z,17.72
2023-05-01T16:39:14.328Z,17.61
2023-05-01T16:41:45.748Z,17.56
2023-05-01T16:44:14.094Z,17.51
2023-05-01T16:46:42.614Z,17.50
2023-05-01T16:49:15.977Z,17.40
2023-05-01T16:51:42.761Z,17.37
2023-05-01T16:54:09.533Z,17.40
2023-05-01T16:56:36.390Z,17.39
2023-05-01T16:59:03.064Z,17.39
2023-05-01T17:01:29.990Z,17.37
2023-05-01T17:03:56.856Z,17.23
2023-05-01T17:06:24.122Z,17.26
2023-05-01T17:08:50.850Z,17.27
2023-05-01T17:11:18.154Z,17.03
2023-05-01T17:13:44.900Z,17.02
2023-05-01T17:16:11.991Z,16.81
2023-05-01T17:18:38.967Z,16.90
2023-05-01T17:21:06.726Z,17.01
2023-05-01T17:23:33.690Z,16.96
2023-05-01T17:26:00.909Z,16.97
2023-05-01T17:28:27.754Z,16.98
2023-05-01T17:30:54.491Z,16.93
2023-05-01T17:33:21.720Z,16.78
2023-05-01T17:35:48.406Z,16.81
2023-05-01T17:38:15.100Z,16.75
2023-05-01T17:40:41.872Z,16.71
2023-05-01T17:43:08.503Z,16.51
2023-05-01T17:45:35.362Z,16.33
2023-05-01T17:48:02.241Z,16.38
2023-05-01T17:50:29.363Z,16.17
2023-05-01T17:52:56.691Z,16.13
2023-05-01T17:55:23.739Z,16.06
2023-05-01T17:57:52.244Z,15.94
2023-05-01T18:00:19.788Z,15.93
2023-05-01T18:02:48.085Z,15.91
2023-05-01T18:05:15.056Z,15.84
2023-05-01T18:07:41.765Z,15.73
2023-05-01T18:10:09.640Z,15.79
2023-05-01T18:12:36.715Z,15.62
2023-05-01T18:15:09.878Z,15.55
2023-05-01T18:17:37.246Z,15.41
2023-05-01T18:20:08.397Z,15.16
2023-05-01T18:22:35.858Z,15.22
2023-05-01T18:25:03.328Z,15.14
2023-05-01T18:27:30.241Z,15.06
2023-05-01T18:29:57.485Z,14.95
2023-05-01T18:32:35.881Z,14.84
2023-05-01T18:35:13.810Z,14.88
2023-05-01T18:37:44.123Z,14.76
2023-05-01T18:40:11.696Z,14.30
2023-05-01T18:42:40.956Z,14.28
2023-05-01T18:45:10.943Z,14.35
2023-05-01T18:47:42.977Z,14.32
2023-05-01T18:50:17.412Z,14.21
2023-05-01T18:52:54.423Z,14.23
2023-05-01T18:55:21.691Z,14.15
2023-05-01T18:57:49.319Z,14.13
2023-05-01T19:00:23.448Z,14.30
2023-05-01T19:02:57.841Z,14.25
2023-05-01T19:05:26.216Z,14.18
2023-05-01T19:07:55.485Z,14.12
2023-05-01T19:10:30.370Z,14.16
2023-05-01T19:13:07.873Z,14.09
2023-05-01T19:15:37.649Z,14.11
2023-05-01T19:18:05.122Z,14.02
2023-05-01T19:20:48.207Z,14.04
2023-05-01T19:23:17.438Z,14.10
2023-05-01T19:25:44.554Z,13.98
2023-05-01T19:28:16.299Z,13.87
2023-05-01T19:30:43.704Z,13.87
2023-05-01T19:33:15.883Z,13.77
2023-05-01T19:35:55.344Z,13.72
2023-05-01T19:38:22.757Z,13.61
2023-05-01T19:40:51.986Z,13.67
2023-05-01T19:43:19.580Z,13.72
2023-05-01T19:45:49.813Z,13.72
2023-05-01T19:48:18.492Z,13.71
2023-05-01T19:50:53.668Z,13.56
2023-05-01T19:53:23.546Z,13.54
2023-05-01T19:55:57.570Z,13.42
2023-05-01T19:58:27.093Z,13.36
2023-05-01T20:00:59.230Z,13.28
2023-05-01T20:03:26.757Z,13.24
2023-05-01T20:05:54.254Z,13.29
2023-05-01T20:08:24.923Z,13.32
2023-05-01T20:10:54.628Z,13.33
2023-05-01T20:13:22.255Z,13.12
2023-05-01T20:15:52.430Z,13.07
2023-05-01T20:18:20.354Z,12.98
2023-05-01T20:20:47.697Z,12.93
2023-05-01T20:23:28.982Z,12.85
2023-05-01T20:25:59.651Z,12.65
2023-05-01T20:28:30.219Z,12.59
2023-05-01T20:31:01.684Z,12.70
2023-05-01T20:33:29.670Z,12.68
2023-05-01T20:35:56.728Z,12.60
2023-05-01T20:38:27.551Z,12.55
2023-05-01T20:40:55.018Z,12.46
2023-05-01T20:43:29.919Z,12.53
2023-05-01T20:46:00.484Z,12.49
2023-05-01T20:48:28.169Z,12.40
2023-05-01T20:50:58.990Z,12.36
2023-05-01T20:53:35.023Z,12.40
2023-05-01T20:56:05.548Z,12.37
2023-05-01T20:58:35.029Z,12.25
2023-05-01T21:01:09.796Z,12.38
2023-05-01T21:03:50.716Z,12.34
2023-05-01T21:06:21.106Z,12.16
2023-05-01T21:08:52.780Z,12.24
2023-05-01T21:11:32.421Z,12.14
2023-05-01T21:14:00.640Z,12.05
2023-05-01T21:16:32.252Z,12.11
2023-05-01T21:19:02.293Z,12.04
2023-05-01T21:21:30.487Z,12.02
2023-05-01T21:24:00.612Z,12.08
2023-05-01T21:26:32.241Z,12.08
2023-05-01T21:29:08.433Z,12.18
2023-05-01T21:31:37.122Z,12.01
2023-05-01T21:34:11.225Z,11.99
2023-05-01T21:36:44.413Z,12.20
2023-05-01T21:39:26.554Z,12.23
2023-05-01T21:41:53.534Z,12.08
2023-05-01T21:44:24.014Z,12.01
2023-05-01T21:47:03.920Z,11.96
2023-05-01T21:49:31.382Z,11.99
2023-05-01T21:52:03.236Z,11.93
2023-05-01T21:54:31.208Z,12.03
2023-05-01T21:56:59.880Z,12.05
2023-05-01T21:59:43.806Z,11.99
2023-05-01T22:02:12.532Z,12.05
2023-05-01T22:04:44.293Z,12.04
2023-05-01T22:07:18.820Z,11.86
2023-05-01T22:09:46.501Z,11.86
2023-05-01T22:12:13.463Z,11.84
2023-05-01T22:14:47.278Z,11.80
2023-05-01T22:17:25.305Z,11.79
2023-05-01T22:19:53.159Z,11.83
2023-05-01T22:22:23.932Z,11.82
2023-05-01T22:24:54.164Z,11.91
2023-05-01T22:27:26.562Z,11.88
2023-05-01T22:29:53.666Z,11.81
2023-05-01T22:32:25.473Z,11.83
2023-05-01T22:34:55.517Z,11.85
2023-05-01T22:37:23.166Z,11.91
2023-05-01T22:39:49.823Z,11.84
2023-05-01T22:42:16.763Z,11.79
2023-05-01T22:44:43.502Z,11.90
2023-05-01T22:47:29.225Z,11.84
2023-05-01T22:49:59.309Z,11.85
2023-05-01T22:52:30.373Z,11.84
2023-05-01T22:55:01.045Z,11.86
2023-05-01T22:57:28.719Z,11.90
2023-05-01T22:59:55.424Z,11.89
2023-05-01T23:02:22.561Z,11.89
2023-05-01T23:04:51.563Z,11.82
2023-05-01T23:07:25.473Z,11.75
2023-05-01T23:09:53.698Z,11.77
2023-05-01T23:12:28.741Z,11.77
2023-05-01T23:14:56.096Z,11.79
2023-05-01T23:17:23.433Z,11.74
2023-05-01T23:19:56.537Z,11.71
2023-05-01T23:22:29.641Z,11.79
2023-05-01T23:24:59.466Z,11.81
2023-05-01T23:27:41.510Z,11.74
2023-05-01T23:30:08.936Z,11.83
2023-05-01T23:32:35.654Z,11.86
2023-05-01T23:35:12.753Z,11.88
2023-05-01T23:37:41.521Z,11.90
2023-05-01T23:40:09.744Z,11.94
2023-05-01T23:42:38.272Z,11.93
2023-05-01T23:45:06.808Z,11.92
2023-05-01T23:47:34.191Z,11.88
2023-05-01T23:50:02.111Z,11.84
2023-05-01T23:52:29.259Z,11.87
2023-05-01T23:54:55.895Z,11.84
2023-05-01T23:57:22.744Z,11.91
2023-05-01T23:59:49.595Z,11.90
